Time;durP1;ratioP1;P1;durP2;ratioP2;P2;SDS_P1;SDS_P2;PMS_P1;PMS_P2;Temp;Humidity;BMP_temperature;BMP_pressure;BME280_temperature;BME280_humidity;BME280_pressure;Samples;Min_cycle;Max_cycle;Signal;HPM_P1;HPM_P2
2022/01/14 00:01:06;;;;;;;5.03;3.35;;;-4.40;99.90;;;;;;4351596;32;20090;-75
2022/01/14 00:03:33;;;;;;;6.72;3.65;;;-4.40;99.90;;;;;;4363575;32;20503;-76
2022/01/14 00:05:59;;;;;;;5.43;3.47;;;-4.30;99.90;;;;;;4377664;32;20245;-76
2022/01/14 00:08:25;;;;;;;5.65;3.20;;;-4.30;99.90;;;;;;4350886;32;20082;-76
2022/01/14 00:10:56;;;;;;;6.12;3.22;;;-4.30;99.90;;;;;;4363110;32;20594;-75
2022/01/14 00:14:09;;;;;;;5.93;3.90;;;-4.30;99.90;;;;;;4350927;32;20467;-75
2022/01/14 00:16:13;;;;;;;5.93;3.40;;;-4.30;99.90;;;;;;4359118;32;20090;-75
2022/01/14 00:18:39;;;;;;;5.18;3.37;;;-4.30;99.90;;;;;;4363255;32;20078;-74
2022/01/14 00:21:06;;;;;;;5.87;3.37;;;-4.30;99.90;;;;;;4363248;32;20195;-75
2022/01/14 00:23:37;;;;;;;5.32;3.50;;;-4.30;99.90;;;;;;4352331;32;20078;-75
2022/01/14 00:31:50;;;;;;;5.32;3.50;;;-4.50;99.90;;;;;;4376897;32;20535;-75
2022/01/14 00:34:17;;;;;;;5.12;3.37;;;-4.50;99.90;;;;;;4380090;32;20090;-75
2022/01/14 00:36:44;;;;;;;4.87;3.03;;;-4.60;99.90;;;;;;4362482;32;20529;-76
2022/01/14 00:39:12;;;;;;;4.85;3.30;;;-4.60;99.90;;;;;;4363531;32;20084;-74
2022/01/14 00:41:39;;;;;;;4.85;3.20;;;-4.70;99.90;;;;;;4362821;32;20062;-75
2022/01/14 00:44:12;;;;;;;5.05;3.05;;;-4.80;99.90;;;;;;4350685;32;20093;-77
2022/01/14 00:46:40;;;;;;;5.55;3.83;;;-4.90;99.90;;;;;;4362708;32;20082;-75
2022/01/14 00:49:07;;;;;;;4.70;2.97;;;-5.00;99.90;;;;;;4376446;32;20093;-74
2022/01/14 00:51:35;;;;;;;4.30;2.90;;;-5.20;99.90;;;;;;4350803;32;20093;-76
2022/01/14 00:54:02;;;;;;;5.12;3.03;;;-5.20;99.90;;;;;;4376469;32;20576;-76
2022/01/14 00:59:21;;;;;;;4.22;3.00;;;-5.50;99.90;;;;;;4335738;32;20172;-75
2022/01/14 01:01:53;;;;;;;4.43;2.60;;;-5.60;99.90;;;;;;4376654;32;20117;-74
2022/01/14 01:04:31;;;;;;;3.83;2.40;;;-5.70;99.90;;;;;;4362262;32;20599;-75
2022/01/14 01:07:04;;;;;;;3.70;2.53;;;-5.80;99.90;;;;;;4362406;32;20098;-75
2022/01/14 01:09:31;;;;;;;4.20;2.75;;;-5.90;99.90;;;;;;4362418;32;20070;-74
2022/01/14 01:14:44;;;;;;;3.25;2.20;;;-6.10;99.90;;;;;;4351072;32;20074;-75
2022/01/14 01:17:11;;;;;;;3.53;2.42;;;-6.30;99.90;;;;;;4351185;32;20069;-75
2022/01/14 01:19:37;;;;;;;3.80;2.47;;;-6.40;99.90;;;;;;4362663;32;20101;-75
2022/01/14 01:22:04;;;;;;;3.97;2.58;;;-6.50;99.90;;;;;;4350098;32;20178;-76
2022/01/14 01:24:31;;;;;;;4.78;3.10;;;-6.60;99.90;;;;;;4362169;32;20111;-76
2022/01/14 01:26:57;;;;;;;4.20;2.55;;;-6.60;99.90;;;;;;4338025;32;20159;-74
2022/01/14 01:31:55;;;;;;;4.53;3.12;;;-6.80;99.90;;;;;;4376377;32;20074;-75
2022/01/14 01:34:25;;;;;;;4.55;2.80;;;-6.80;99.90;;;;;;4362075;32;20078;-77
2022/01/14 01:36:55;;;;;;;4.28;2.55;;;-6.90;99.90;;;;;;4362701;32;20098;-75
2022/01/14 01:39:29;;;;;;;4.05;2.70;;;-7.00;99.90;;;;;;4350086;32;20093;-75
2022/01/14 01:42:00;;;;;;;4.03;2.58;;;-7.10;99.90;;;;;;4350698;32;20086;-75
2022/01/14 01:44:28;;;;;;;5.15;3.12;;;-7.30;99.90;;;;;;4337853;32;20068;-75
2022/01/14 01:46:56;;;;;;;4.47;2.78;;;-7.30;99.90;;;;;;4362666;32;20088;-75
2022/01/14 01:49:33;;;;;;;4.18;2.97;;;-7.40;99.90;;;;;;4349876;32;20457;-76
2022/01/14 01:52:00;;;;;;;4.15;2.72;;;-7.50;99.90;;;;;;4350171;32;20066;-75
2022/01/14 01:54:28;;;;;;;4.30;2.90;;;-7.50;99.90;;;;;;4350026;32;20597;-75
2022/01/14 01:56:56;;;;;;;5.05;3.05;;;-7.60;99.90;;;;;;4362886;32;20106;-75
2022/01/14 01:59:24;;;;;;;5.07;3.08;;;-7.60;99.90;;;;;;4362176;32;20588;-75
2022/01/14 02:01:53;;;;;;;5.85;3.35;;;-7.70;99.90;;;;;;4349987;32;20127;-75
2022/01/14 02:04:19;;;;;;;5.03;3.30;;;-7.80;99.90;;;;;;4362312;32;20781;-74
2022/01/14 02:06:47;;;;;;;5.40;3.20;;;-8.00;99.90;;;;;;4350356;32;20434;-75
2022/01/14 02:09:14;;;;;;;5.87;3.35;;;-8.00;99.90;;;;;;4349816;32;20082;-74
2022/01/14 02:11:40;;;;;;;6.03;3.65;;;-8.20;99.90;;;;;;4349611;32;20074;-75
2022/01/14 02:14:15;;;;;;;5.45;3.70;;;-8.30;99.90;;;;;;4349561;32;20437;-75
2022/01/14 02:22:55;;;;;;;6.10;3.90;;;-8.50;99.90;;;;;;4354291;32;20479;-75
2022/01/14 02:25:30;;;;;;;6.45;3.25;;;-8.60;99.90;;;;;;4364781;32;20070;-76
2022/01/14 02:28:06;;;;;;;6.10;4.05;;;-8.60;99.90;;;;;;4365809;32;20108;-75
2022/01/14 02:30:39;;;;;;;5.93;3.67;;;-8.60;99.90;;;;;;4352509;32;20074;-75
2022/01/14 02:33:08;;;;;;;5.78;3.95;;;-8.70;99.90;;;;;;4352022;32;20157;-75
2022/01/14 02:35:36;;;;;;;7.07;4.60;;;-8.80;99.90;;;;;;4340243;32;20843;-76
2022/01/14 02:38:04;;;;;;;5.82;3.70;;;-8.80;99.90;;;;;;4365428;32;20078;-75
2022/01/14 02:40:30;;;;;;;6.32;3.45;;;-8.90;99.90;;;;;;4365310;32;20093;-77
2022/01/14 02:43:00;;;;;;;6.05;3.78;;;-8.90;99.90;;;;;;4356942;32;20086;-77
2022/01/14 02:45:33;;;;;;;6.35;3.80;;;-9.00;99.90;;;;;;4354481;32;20065;-75
2022/01/14 02:48:02;;;;;;;8.05;4.65;;;-9.10;99.90;;;;;;4364378;32;20081;-75
2022/01/14 02:50:36;;;;;;;5.95;3.75;;;-9.10;99.90;;;;;;4352323;32;20073;-75
2022/01/14 02:53:12;;;;;;;6.47;3.90;;;-9.20;99.90;;;;;;4352253;32;20144;-75
2022/01/14 02:55:43;;;;;;;;;;;-9.20;99.90;;;;;;4353887;32;20073;-75
2022/01/14 02:58:11;;;;;;;6.62;4.25;;;-9.30;99.90;;;;;;4378829;32;19973;-73
2022/01/14 03:00:38;;;;;;;6.78;5.03;;;-9.50;99.90;;;;;;4344479;32;20089;-75
2022/01/14 03:03:05;;;;;;;7.18;3.72;;;-9.50;99.90;;;;;;4365091;32;20096;-74
2022/01/14 03:05:32;;;;;;;6.60;4.20;;;-9.40;99.90;;;;;;4364406;32;20088;-76
2022/01/14 03:07:58;;;;;;;7.40;4.70;;;-9.50;99.90;;;;;;4364439;32;20149;-75
2022/01/14 03:13:05;;;;;;;5.83;4.00;;;-9.60;99.90;;;;;;3834412;37;20087;-75
2022/01/14 03:15:31;;;;;;;6.25;4.20;;;-9.60;99.90;;;;;;4405080;32;20074;-75
2022/01/14 03:17:57;;;;;;;6.22;4.18;;;-9.70;99.90;;;;;;4390950;32;20472;-75
2022/01/14 03:20:48;;;;;;;6.97;4.60;;;-9.70;99.90;;;;;;4390704;32;20119;-75
2022/01/14 03:23:16;;;;;;;7.18;4.25;;;-9.70;99.90;;;;;;4380788;32;20584;-75
2022/01/14 03:25:49;;;;;;;7.18;5.03;;;-9.80;99.90;;;;;;4391028;32;20105;-76
2022/01/14 03:28:22;;;;;;;8.57;5.05;;;-9.90;99.90;;;;;;4379969;32;20085;-75
2022/01/14 03:30:51;;;;;;;7.60;4.93;;;-10.00;99.90;;;;;;4390984;32;20100;-75
2022/01/14 03:33:17;;;;;;;7.35;4.65;;;-10.20;99.90;;;;;;4377051;32;20078;-75
2022/01/14 03:35:44;;;;;;;8.60;5.37;;;-10.20;99.90;;;;;;4362943;32;20456;-75
2022/01/14 03:38:10;;;;;;;8.82;4.85;;;-10.20;99.90;;;;;;4350729;32;20078;-75
2022/01/14 03:40:36;;;;;;;8.68;5.68;;;-10.20;99.90;;;;;;4375420;32;20082;-75
2022/01/14 03:43:03;;;;;;;8.00;5.62;;;-10.20;99.90;;;;;;4375150;32;20073;-75
2022/01/14 03:45:30;;;;;;;7.95;5.37;;;-10.10;99.90;;;;;;4375048;32;20581;-74
2022/01/14 03:47:56;;;;;;;9.07;5.40;;;-10.10;99.90;;;;;;4362446;32;20151;-75
2022/01/14 03:50:23;;;;;;;8.70;6.22;;;-10.30;99.90;;;;;;4362688;32;20078;-75
2022/01/14 03:52:49;;;;;;;7.95;5.40;;;-10.30;99.90;;;;;;4375138;32;20093;-75
2022/01/14 03:55:16;;;;;;;10.18;5.30;;;-10.20;99.90;;;;;;4374820;32;20070;-75
2022/01/14 03:57:42;;;;;;;8.55;5.30;;;-10.30;99.90;;;;;;4362278;32;20066;-74
2022/01/14 04:00:10;;;;;;;7.85;5.22;;;-10.40;99.90;;;;;;4362501;32;20073;-74
2022/01/14 04:02:36;;;;;;;8.60;5.72;;;-10.40;99.90;;;;;;4374659;32;20105;-75
2022/01/14 04:05:03;;;;;;;8.30;5.40;;;-10.50;99.90;;;;;;4374534;32;20172;-75
2022/01/14 04:07:29;;;;;;;9.05;5.97;;;-10.40;99.90;;;;;;4388851;32;20094;-75
2022/01/14 04:09:56;;;;;;;7.22;5.45;;;-10.40;99.90;;;;;;4362016;32;20528;-75
2022/01/14 04:12:34;;;;;;;7.20;5.18;;;-10.50;99.90;;;;;;4362171;32;20101;-75
2022/01/14 04:17:28;;;;;;;8.43;5.70;;;-10.50;99.90;;;;;;4388880;32;20146;-75
2022/01/14 04:19:54;;;;;;;8.77;5.72;;;-10.40;99.90;;;;;;4375154;32;20081;-75
2022/01/14 04:22:20;;;;;;;9.77;5.43;;;-10.60;99.90;;;;;;4349069;32;20093;-75
2022/01/14 04:24:47;;;;;;;7.90;5.25;;;-10.70;99.90;;;;;;4352059;32;20108;-75
2022/01/14 04:27:13;;;;;;;8.50;5.15;;;-10.80;99.90;;;;;;4372058;32;20438;-76
2022/01/14 04:29:39;;;;;;;8.88;5.60;;;-10.80;99.90;;;;;;4365856;32;20536;-75
2022/01/14 04:32:06;;;;;;;12.37;5.68;;;-10.90;99.90;;;;;;4364180;32;20109;-75
2022/01/14 04:34:32;;;;;;;7.93;5.32;;;-11.00;99.90;;;;;;4351909;32;20078;-75
2022/01/14 04:36:59;;;;;;;8.27;5.20;;;-11.00;99.90;;;;;;4364565;32;20090;-75
2022/01/14 04:39:25;;;;;;;7.55;5.22;;;-10.90;99.90;;;;;;4352001;32;20504;-74
2022/01/14 04:41:51;;;;;;;8.23;4.90;;;-11.00;99.90;;;;;;4364153;32;20097;-75
2022/01/14 04:44:18;;;;;;;7.35;4.78;;;-10.90;99.90;;;;;;4351767;32;20171;-75
2022/01/14 04:49:11;;;;;;;7.95;5.40;;;-11.00;99.90;;;;;;4352410;32;20086;-74
2022/01/14 04:51:38;;;;;;;8.20;5.28;;;-11.00;99.90;;;;;;4364164;32;20089;-75
2022/01/14 04:54:05;;;;;;;8.55;5.12;;;-11.10;99.90;;;;;;4364215;32;20104;-74
2022/01/14 04:56:34;;;;;;;7.35;4.85;;;-11.10;99.90;;;;;;4363872;32;20078;-75
2022/01/14 04:59:01;;;;;;;9.05;5.50;;;-11.30;99.90;;;;;;4377743;32;20074;-75
2022/01/14 05:01:28;;;;;;;8.90;5.20;;;-11.30;99.90;;;;;;4364895;32;20075;-73
2022/01/14 05:03:57;;;;;;;8.18;5.25;;;-11.30;99.90;;;;;;4365751;32;20080;-74
2022/01/14 05:06:23;;;;;;;7.40;5.18;;;-11.50;99.90;;;;;;4351990;32;20143;-74
2022/01/14 05:08:50;;;;;;;7.68;5.37;;;-11.30;99.90;;;;;;4364005;32;20527;-74
2022/01/14 05:13:43;;;;;;;7.53;5.10;;;-11.40;99.90;;;;;;4377357;32;20082;-74
2022/01/14 05:16:09;;;;;;;9.13;5.35;;;-11.50;99.90;;;;;;4364048;32;20086;-74
2022/01/14 05:18:38;;;;;;;8.10;5.22;;;-11.40;99.90;;;;;;4363819;32;20089;-75
2022/01/14 05:21:05;;;;;;;10.18;6.00;;;-11.40;99.90;;;;;;4363715;32;20157;-75
2022/01/14 05:23:32;;;;;;;8.52;5.03;;;-11.60;99.90;;;;;;4351408;32;20611;-75
2022/01/14 05:25:58;;;;;;;9.25;5.47;;;-11.60;99.90;;;;;;4377542;32;20509;-75
2022/01/14 05:28:24;;;;;;;9.10;5.00;;;-11.60;99.90;;;;;;4363518;32;20086;-75
2022/01/14 05:30:51;;;;;;;8.40;5.62;;;-11.60;99.90;;;;;;4363641;32;20073;-75
2022/01/14 05:33:18;;;;;;;9.25;4.97;;;-11.80;99.90;;;;;;4377570;32;20113;-74
2022/01/14 05:35:44;;;;;;;8.07;5.28;;;-11.70;99.90;;;;;;4350541;32;20524;-75
2022/01/14 05:38:12;;;;;;;7.05;4.40;;;-11.70;99.90;;;;;;4377188;32;20090;-74
2022/01/14 05:40:38;;;;;;;8.45;5.18;;;-11.80;99.90;;;;;;4351459;32;20077;-74
2022/01/14 05:43:04;;;;;;;7.97;5.25;;;-11.80;99.90;;;;;;4350868;32;20113;-75
2022/01/14 05:45:31;;;;;;;8.82;5.35;;;-11.90;99.90;;;;;;4350972;32;20554;-75
2022/01/14 05:47:57;;;;;;;8.00;5.37;;;-11.90;99.90;;;;;;4363508;32;20092;-74
2022/01/14 05:50:25;;;;;;;8.35;5.87;;;-11.70;99.90;;;;;;4338674;32;20525;-75
2022/01/14 05:52:52;;;;;;;7.72;5.10;;;-11.90;99.90;;;;;;4363112;32;20574;-74
2022/01/14 05:55:21;;;;;;;8.93;6.28;;;-11.90;99.90;;;;;;4363034;32;20080;-75
2022/01/14 05:57:47;;;;;;;8.85;5.57;;;-11.90;99.90;;;;;;4363225;32;20081;-74
2022/01/14 06:00:19;;;;;;;11.75;5.22;;;-12.00;99.90;;;;;;4338460;32;20519;-74
2022/01/14 06:02:48;;;;;;;9.80;6.03;;;-11.80;99.90;;;;;;4363153;32;20082;-74
2022/01/14 06:05:14;;;;;;;9.98;6.00;;;-12.10;99.90;;;;;;4363265;32;20082;-75
2022/01/14 06:07:41;;;;;;;8.80;4.93;;;-11.90;99.90;;;;;;4351069;32;20100;-75
2022/01/14 06:10:08;;;;;;;7.50;5.00;;;-12.10;99.90;;;;;;4341221;32;20541;-76
2022/01/14 06:12:35;;;;;;;8.45;5.60;;;-12.10;99.90;;;;;;4376698;32;20094;-75
2022/01/14 06:15:01;;;;;;;8.00;5.37;;;-12.10;99.90;;;;;;4363334;32;20073;-75
2022/01/14 06:17:29;;;;;;;7.72;4.82;;;-11.90;99.90;;;;;;4350729;32;20127;-75
2022/01/14 06:19:55;;;;;;;7.80;5.00;;;-12.00;99.90;;;;;;4362835;32;20521;-74
2022/01/14 06:22:22;;;;;;;8.27;5.00;;;-11.90;99.90;;;;;;4362940;32;20512;-74
2022/01/14 06:24:49;;;;;;;7.82;5.47;;;-12.00;99.90;;;;;;4362977;32;20089;-75
2022/01/14 06:27:16;;;;;;;7.32;4.45;;;-12.40;99.90;;;;;;4351377;32;20147;-75
2022/01/14 06:29:42;;;;;;;7.80;5.35;;;-12.20;99.90;;;;;;4376805;32;20433;-75
2022/01/14 06:32:08;;;;;;;8.20;5.22;;;-12.40;99.90;;;;;;4362807;32;20101;-74
2022/01/14 06:34:35;;;;;;;8.07;4.97;;;-12.50;99.90;;;;;;4376502;32;20093;-75
2022/01/14 06:37:02;;;;;;;9.10;5.55;;;-12.40;99.90;;;;;;4362710;32;20070;-74
2022/01/14 06:39:28;;;;;;;11.90;5.80;;;-12.30;99.90;;;;;;4376514;32;20093;-74
2022/01/14 06:41:55;;;;;;;9.15;5.10;;;-12.50;99.90;;;;;;4362359;32;20496;-75
2022/01/14 06:44:21;;;;;;;9.23;5.18;;;-12.60;99.90;;;;;;4362922;32;20101;-75
2022/01/14 06:46:47;;;;;;;8.40;5.78;;;-12.60;99.90;;;;;;4362083;32;20082;-75
2022/01/14 06:49:14;;;;;;;8.77;5.80;;;-12.60;99.90;;;;;;4376452;32;20085;-75
2022/01/14 06:51:40;;;;;;;8.15;6.53;;;-12.60;99.90;;;;;;4363019;32;20066;-75
2022/01/14 06:54:07;;;;;;;9.07;6.15;;;-12.70;99.90;;;;;;4362880;32;20097;-75
2022/01/14 06:56:33;;;;;;;7.95;5.60;;;-12.80;99.90;;;;;;4350215;32;20105;-75
2022/01/14 06:59:00;;;;;;;8.43;5.55;;;-12.50;99.90;;;;;;4362635;32;20066;-75
2022/01/14 07:01:26;;;;;;;9.77;6.05;;;-12.50;99.90;;;;;;4349922;32;20070;-75
2022/01/14 07:03:52;;;;;;;9.43;6.18;;;-12.50;99.90;;;;;;4362396;32;20067;-75
2022/01/14 07:06:19;;;;;;;7.90;5.60;;;-12.60;99.90;;;;;;4337514;32;20074;-75
2022/01/14 07:08:45;;;;;;;7.93;5.87;;;-12.70;99.90;;;;;;4350183;32;20075;-75
2022/01/14 07:11:14;;;;;;;8.85;6.20;;;-12.80;99.90;;;;;;4361942;32;20167;-74
2022/01/14 07:13:40;;;;;;;9.43;6.87;;;-13.00;99.90;;;;;;4362919;32;20093;-73
2022/01/14 07:16:07;;;;;;;9.10;6.07;;;-12.90;99.90;;;;;;4362942;32;20489;-75
2022/01/14 07:18:33;;;;;;;9.73;6.10;;;-12.80;99.90;;;;;;4376278;32;20078;-76
2022/01/14 07:21:00;;;;;;;10.20;6.45;;;-12.90;99.90;;;;;;4362197;32;20218;-75
2022/01/14 07:23:26;;;;;;;9.88;5.85;;;-12.60;99.90;;;;;;4350447;32;20086;-76
2022/01/14 07:25:53;;;;;;;10.40;7.50;;;-12.60;99.90;;;;;;4350018;32;20512;-75
2022/01/14 07:28:19;;;;;;;10.20;5.90;;;-12.80;99.90;;;;;;4362292;32;20100;-75
2022/01/14 07:30:46;;;;;;;9.85;6.35;;;-12.80;99.90;;;;;;4350338;32;20081;-75
2022/01/14 07:33:12;;;;;;;8.60;6.12;;;-13.00;99.90;;;;;;4362033;32;20090;-73
2022/01/14 07:35:40;;;;;;;10.63;6.82;;;-12.90;99.90;;;;;;4362658;32;20227;-75
2022/01/14 07:38:06;;;;;;;10.32;6.05;;;-12.90;99.90;;;;;;4362267;32;20094;-76
2022/01/14 07:40:32;;;;;;;8.15;5.37;;;-13.00;99.90;;;;;;4376109;32;20070;-74
2022/01/14 07:42:59;;;;;;;8.55;5.70;;;-12.80;99.90;;;;;;4362292;32;20089;-75
2022/01/14 07:45:25;;;;;;;10.18;7.35;;;-12.90;99.90;;;;;;4362005;32;20449;-75
2022/01/14 07:47:51;;;;;;;1.55;1.00;;;-13.20;99.90;;;;;;4375750;32;20525;-76
2022/01/14 07:50:18;;;;;;;3.75;2.62;;;-12.90;99.90;;;;;;4337403;32;20520;-75
2022/01/14 07:52:44;;;;;;;1.45;1.27;;;-13.10;99.90;;;;;;4379608;32;20085;-77
2022/01/14 07:55:11;;;;;;;9.05;6.28;;;-13.00;99.90;;;;;;4350491;32;20100;-75
2022/01/14 07:57:37;;;;;;;9.77;6.37;;;-13.10;99.90;;;;;;4375821;32;20520;-75
2022/01/14 08:00:06;;;;;;;10.80;6.60;;;-13.00;99.90;;;;;;4352863;32;20065;-75
2022/01/14 08:02:33;;;;;;;9.00;5.55;;;-13.20;99.90;;;;;;4339827;32;20081;-74
2022/01/14 08:05:00;;;;;;;8.45;6.12;;;-12.90;99.90;;;;;;4364846;32;20142;-76
2022/01/14 08:07:28;;;;;;;8.32;6.60;;;-12.90;99.90;;;;;;4378758;32;20441;-75
2022/01/14 08:09:55;;;;;;;10.98;6.70;;;-13.10;99.90;;;;;;4378505;32;20095;-75
2022/01/14 08:12:21;;;;;;;5.18;2.62;;;-12.90;99.90;;;;;;4351980;32;20092;-74
2022/01/14 08:14:48;;;;;;;8.60;5.15;;;-13.10;99.90;;;;;;4364397;32;20088;-76
2022/01/14 08:17:17;;;;;;;3.65;1.55;;;-13.10;99.90;;;;;;4378106;32;20120;-75
2022/01/14 08:19:44;;;;;;;8.43;5.68;;;-13.10;99.90;;;;;;4365125;32;20520;-76
2022/01/14 08:22:10;;;;;;;8.85;5.28;;;-13.00;99.90;;;;;;4352308;32;20078;-76
2022/01/14 08:24:37;;;;;;;9.18;6.35;;;-12.90;99.90;;;;;;4364568;32;20081;-75
2022/01/14 08:27:07;;;;;;;10.30;6.07;;;-13.10;99.90;;;;;;4349801;32;20102;-65
2022/01/14 08:29:34;;;;;;;9.48;5.93;;;-13.10;99.90;;;;;;4346595;32;20058;-77
2022/01/14 08:32:01;;;;;;;9.75;6.12;;;-13.10;99.90;;;;;;4361804;32;20074;-76
2022/01/14 08:34:27;;;;;;;10.18;6.68;;;-13.10;99.90;;;;;;4363174;32;20073;-76
2022/01/14 08:36:54;;;;;;;10.23;5.70;;;-13.20;99.90;;;;;;4350988;32;20067;-73
2022/01/14 08:39:20;;;;;;;9.60;6.20;;;-13.20;99.90;;;;;;4363989;32;20078;-73
2022/01/14 08:41:47;;;;;;;9.27;5.50;;;-13.20;99.90;;;;;;4351647;32;20170;-72
2022/01/14 08:44:14;;;;;;;9.10;6.07;;;-13.20;99.90;;;;;;4348456;32;20530;-73
2022/01/14 08:46:42;;;;;;;9.50;6.07;;;-13.20;99.90;;;;;;4361482;32;20121;-74
2022/01/14 08:49:09;;;;;;;9.30;6.00;;;-13.20;99.90;;;;;;4363527;32;21015;-73
2022/01/14 08:51:37;;;;;;;10.18;6.47;;;-13.30;99.90;;;;;;4362838;32;20544;-72
2022/01/14 08:54:04;;;;;;;10.32;6.43;;;-13.40;99.90;;;;;;4362530;32;20170;-73
2022/01/14 08:56:34;;;;;;;10.05;6.45;;;-13.40;99.90;;;;;;4334502;32;20106;-75
2022/01/14 08:59:01;;;;;;;14.40;6.80;;;-13.30;99.90;;;;;;4344095;32;20098;-73
2022/01/14 09:01:28;;;;;;;9.95;6.68;;;-13.50;99.90;;;;;;4373006;32;20065;-73
2022/01/14 09:03:55;;;;;;;9.05;6.37;;;-13.50;99.90;;;;;;4358188;32;20063;-74
2022/01/14 09:06:21;;;;;;;9.88;6.60;;;-13.40;99.90;;;;;;4336566;32;20178;-74
2022/01/14 09:08:48;;;;;;;10.52;6.00;;;-13.40;99.90;;;;;;4363518;32;20377;-74
2022/01/14 09:11:15;;;;;;;10.18;6.40;;;-13.30;99.90;;;;;;4376056;32;20137;-74
2022/01/14 09:13:41;;;;;;;10.73;6.35;;;-13.30;99.90;;;;;;4362969;32;20147;-74
2022/01/14 09:16:08;;;;;;;9.20;6.65;;;-13.10;99.90;;;;;;4350687;32;20533;-73
2022/01/14 09:18:35;;;;;;;9.25;6.57;;;-13.20;99.90;;;;;;4337997;32;20129;-72
2022/01/14 09:21:01;;;;;;;7.78;5.50;;;-13.20;99.90;;;;;;4363384;32;20058;-73
2022/01/14 09:23:29;;;;;;;9.05;6.05;;;-13.20;99.90;;;;;;4377215;32;20097;-73
2022/01/14 09:25:56;;;;;;;11.50;6.60;;;-13.20;99.90;;;;;;4359723;32;20547;-72
2022/01/14 09:28:23;;;;;;;9.57;6.55;;;-13.10;99.90;;;;;;4361247;32;20066;-72
2022/01/14 09:30:49;;;;;;;10.23;6.20;;;-13.10;99.90;;;;;;4348781;32;20456;-73
2022/01/14 09:33:17;;;;;;;10.73;6.20;;;-13.00;99.90;;;;;;4372525;32;20460;-72
2022/01/14 09:35:45;;;;;;;8.35;5.65;;;-13.20;99.90;;;;;;4348631;32;20069;-72
2022/01/14 09:38:12;;;;;;;10.05;6.25;;;-13.10;99.90;;;;;;4362394;32;20101;-73
2022/01/14 09:40:43;;;;;;;9.38;6.30;;;-13.10;99.90;;;;;;4368297;32;20107;-69
2022/01/14 09:43:13;;;;;;;11.63;6.70;;;-13.20;99.90;;;;;;4377420;32;20177;-67
2022/01/14 09:45:41;;;;;;;9.95;6.47;;;-13.20;99.90;;;;;;4357922;32;20117;-70
2022/01/14 09:48:07;;;;;;;8.98;6.25;;;-13.20;99.90;;;;;;4373925;32;20165;-70
2022/01/14 09:50:34;;;;;;;9.10;6.20;;;-12.90;99.90;;;;;;4358401;32;20552;-71
2022/01/14 09:53:00;;;;;;;10.85;6.37;;;-13.00;99.90;;;;;;4363637;32;20078;-71
2022/01/14 09:55:27;;;;;;;11.35;7.85;;;-13.00;99.90;;;;;;4366383;32;20620;-73
2022/01/14 09:57:54;;;;;;;9.38;5.97;;;-13.10;99.90;;;;;;4371939;32;20542;-73
2022/01/14 10:00:21;;;;;;;10.75;7.53;;;-13.00;99.90;;;;;;4357799;32;20117;-77
2022/01/14 10:02:52;;;;;;;12.07;7.65;;;-13.20;99.90;;;;;;4342457;32;20085;-71
2022/01/14 10:05:37;;;;;;;9.50;6.05;;;-13.00;99.90;;;;;;4345311;32;20066;-70
2022/01/14 10:08:09;;;;;;;11.40;6.62;;;-13.00;99.90;;;;;;4353886;32;20089;-72
2022/01/14 10:10:38;;;;;;;11.00;6.55;;;-13.00;99.90;;;;;;4360442;32;20584;-72
2022/01/14 10:13:18;;;;;;;11.05;6.85;;;-13.10;99.90;;;;;;4375073;32;20500;-72
2022/01/14 10:15:52;;;;;;;12.00;6.90;;;-12.90;99.90;;;;;;4349627;32;20159;-74
2022/01/14 10:18:22;;;;;;;8.93;6.03;;;-13.00;99.90;;;;;;4349116;32;20158;-75
2022/01/14 10:20:50;;;;;;;9.15;6.78;;;-13.20;99.90;;;;;;4358887;32;20162;-77
2022/01/14 10:23:41;;;;;;;9.80;6.50;;;-13.20;99.90;;;;;;4332000;32;20100;-76
2022/01/14 10:26:07;;;;;;;7.97;5.35;;;-13.10;99.90;;;;;;4353880;32;20084;-76
2022/01/14 10:28:34;;;;;;;10.38;6.87;;;-13.10;99.90;;;;;;4345618;32;20062;-71
2022/01/14 10:31:04;;;;;;;10.68;6.15;;;-13.10;99.90;;;;;;4359704;32;20158;-75
2022/01/14 10:33:31;;;;;;;9.05;6.43;;;-13.00;99.90;;;;;;4346629;32;20471;-72
2022/01/14 10:35:58;;;;;;;9.82;6.22;;;-12.90;99.90;;;;;;4342838;32;20110;-67
2022/01/14 10:38:34;;;;;;;10.73;7.65;;;-12.90;99.90;;;;;;4368293;32;20085;-71
2022/01/14 10:41:01;;;;;;;10.52;7.20;;;-12.70;99.90;;;;;;4331120;32;20062;-71
2022/01/14 10:43:35;;;;;;;10.00;5.75;;;-12.70;99.90;;;;;;4343029;32;20093;-72
2022/01/14 10:46:07;;;;;;;9.32;5.80;;;-12.80;99.90;;;;;;4361718;32;20089;-72
2022/01/14 10:48:37;;;;;;;11.70;7.15;;;-12.80;99.90;;;;;;4355030;32;20069;-72
2022/01/14 10:51:10;;;;;;;11.35;6.45;;;-12.60;99.90;;;;;;4358340;32;20070;-71
2022/01/14 10:53:59;;;;;;;10.90;6.72;;;-12.50;99.90;;;;;;4357759;32;20125;-71
2022/01/14 10:56:27;;;;;;;10.50;6.40;;;-12.70;99.90;;;;;;4349370;32;20121;-73
2022/01/14 10:58:56;;;;;;;8.95;6.43;;;-12.60;99.90;;;;;;4344178;32;20089;-70
2022/01/14 11:01:25;;;;;;;11.25;7.57;;;-12.70;99.90;;;;;;4342443;32;20593;-71
2022/01/14 11:03:57;;;;;;;10.38;7.07;;;-12.80;99.90;;;;;;4343246;32;20070;-67
2022/01/14 11:06:38;;;;;;;9.18;6.85;;;-12.90;99.90;;;;;;4371040;32;20169;-73
2022/01/14 11:09:07;;;;;;;9.85;7.53;;;-13.00;99.90;;;;;;4356989;32;20508;-74
2022/01/14 11:11:40;;;;;;;10.52;7.43;;;-12.80;99.90;;;;;;4366144;32;20089;-74
2022/01/14 11:14:08;;;;;;;10.70;6.53;;;-12.80;99.90;;;;;;4340638;32;20117;-71
2022/01/14 11:16:35;;;;;;;10.90;7.18;;;-12.90;99.90;;;;;;4353815;32;20108;-65
2022/01/14 11:19:03;;;;;;;10.02;6.40;;;-13.00;99.90;;;;;;4331502;32;20482;-73
2022/01/14 11:24:27;;;;;;;9.55;7.43;;;-12.90;99.90;;;;;;4362507;32;20078;-73
2022/01/14 11:27:14;;;;;;;10.40;8.35;;;-13.10;99.90;;;;;;4355832;32;20519;-72
2022/01/14 11:29:51;;;;;;;11.27;7.10;;;-13.00;99.90;;;;;;4338026;32;20067;-73
2022/01/14 11:32:18;;;;;;;11.63;7.00;;;-13.00;99.90;;;;;;4360455;32;20081;-72
2022/01/14 11:34:47;;;;;;;9.50;6.78;;;-12.90;99.90;;;;;;4364272;32;20156;-74
2022/01/14 11:37:30;;;;;;;11.25;7.40;;;-12.80;99.90;;;;;;4352467;32;20092;-73
2022/01/14 11:40:08;;;;;;;11.85;7.40;;;-12.90;99.90;;;;;;4364955;32;20519;-73
2022/01/14 11:42:58;;;;;;;9.43;7.12;;;-12.80;99.90;;;;;;4352475;32;20179;-73
2022/01/14 11:45:46;;;;;;;10.40;7.78;;;-12.80;99.90;;;;;;4364740;32;20105;-74
2022/01/14 11:48:36;;;;;;;11.52;7.40;;;-13.00;99.90;;;;;;4348814;32;20062;-73
2022/01/14 11:51:12;;;;;;;12.23;7.68;;;-12.90;99.90;;;;;;4349981;32;20082;-74
2022/01/14 11:53:43;;;;;;;10.15;6.30;;;-12.90;99.90;;;;;;4349998;32;20091;-74
2022/01/14 11:56:32;;;;;;;10.48;8.15;;;-12.70;99.90;;;;;;4353167;32;20244;-73
2022/01/14 11:59:23;;;;;;;9.65;7.20;;;-12.80;99.90;;;;;;4337038;32;20130;-73
2022/01/14 12:01:55;;;;;;;11.68;6.97;;;-12.80;99.90;;;;;;4337946;32;20153;-72
2022/01/14 12:05:02;;;;;;;10.10;7.35;;;-12.70;99.90;;;;;;4345425;32;20073;-73
2022/01/14 12:07:29;;;;;;;10.90;6.85;;;-12.90;99.90;;;;;;4378022;32;20141;-72
2022/01/14 12:10:03;;;;;;;12.07;7.07;;;-12.80;99.90;;;;;;4377866;32;20493;-72
2022/01/14 12:12:31;;;;;;;11.45;7.25;;;-13.00;99.90;;;;;;4350156;32;20074;-74
2022/01/14 12:15:01;;;;;;;9.63;6.82;;;-12.90;99.90;;;;;;4376532;32;20077;-72
2022/01/14 12:17:43;;;;;;;9.40;6.78;;;-13.00;99.90;;;;;;4348780;32;20535;-72
2022/01/14 12:20:18;;;;;;;11.30;7.07;;;-13.00;99.90;;;;;;4348426;32;20082;-70
2022/01/14 12:23:10;;;;;;;10.73;6.97;;;-12.90;99.90;;;;;;4343000;32;20117;-72
2022/01/14 12:25:44;;;;;;;10.18;6.82;;;-13.00;99.90;;;;;;4356625;32;20074;-72
2022/01/14 12:28:23;;;;;;;10.63;7.18;;;-13.00;99.90;;;;;;4357241;32;20070;-73
2022/01/14 12:31:03;;;;;;;10.68;7.53;;;-13.00;99.90;;;;;;4354721;32;20086;-70
2022/01/14 12:33:50;;;;;;;9.88;6.20;;;-13.10;99.90;;;;;;4336945;32;21045;-71
2022/01/14 12:36:25;;;;;;;10.77;6.45;;;-13.00;99.90;;;;;;4340312;32;20073;-70
2022/01/14 12:39:05;;;;;;;9.35;6.65;;;-13.00;99.90;;;;;;4346655;32;20187;-73
2022/01/14 12:41:31;;;;;;;8.98;6.37;;;-13.10;99.90;;;;;;4369591;32;20066;-68
2022/01/14 12:43:58;;;;;;;10.05;7.37;;;-13.00;99.90;;;;;;4359822;32;20070;-72
2022/01/14 12:49:11;;;;;;;10.75;7.80;;;-13.00;99.90;;;;;;4358571;32;20171;-70
2022/01/14 12:51:48;;;;;;;10.02;7.65;;;-12.90;99.90;;;;;;4360921;32;20451;-71
2022/01/14 12:54:42;;;;;;;9.68;6.50;;;-12.90;99.90;;;;;;4349687;32;20069;-73
2022/01/14 12:57:15;;;;;;;9.32;7.10;;;-12.70;99.90;;;;;;4345911;32;20073;-70
2022/01/14 12:59:47;;;;;;;11.52;7.25;;;-12.80;99.90;;;;;;4332055;32;20495;-68
2022/01/14 13:02:23;;;;;;;11.12;7.18;;;-12.60;99.90;;;;;;4360009;32;20074;-70
2022/01/14 13:05:15;;;;;;;11.07;7.53;;;-12.60;99.90;;;;;;4362027;32;20054;-70
2022/01/14 13:07:45;;;;;;;10.02;7.20;;;-12.60;99.90;;;;;;4343631;32;20444;-67
2022/01/14 13:10:17;;;;;;;10.57;7.53;;;-12.50;99.90;;;;;;4343347;32;20073;-67
2022/01/14 13:12:47;;;;;;;10.27;6.45;;;-12.60;99.90;;;;;;4344910;32;20603;-71
2022/01/14 13:15:20;;;;;;;11.88;6.87;;;-12.60;99.90;;;;;;4355689;32;20054;-66
2022/01/14 13:18:04;;;;;;;10.57;7.15;;;-12.60;99.90;;;;;;4351873;32;20106;-65
2022/01/14 13:20:38;;;;;;;10.18;6.60;;;-12.50;99.90;;;;;;4368899;32;20102;-67
2022/01/14 13:23:07;;;;;;;11.02;7.20;;;-12.60;99.90;;;;;;4358423;32;20489;-69